Bellemont, AZ (86015)

6:58 AM MST on February 11, 2016 (GMT -0700)
The Arboretum At Flagstaff | | Change Station
CLOSE
Current Station
Personal Weather Station
Location: Flagstaff, AZ
Elevation: 7152 ft
Nearby Weather Stations

Elev 7152 ft 35.16 °N, 111.73 °W | Updated 3 seconds ago

Partly Cloudy
Partly Cloudy
17.6 °F
Feels Like 18 °F
N
0.0
Wind Variable Wind from South

Today
High -- | Low -- °F
--% Chance of Precip.
Yesterday
High -- | Low -- °F
Precip. -- in
Pressure 30.36 in
Visibility 10.0 miles
Clouds Clear
Windchill 18 °F
Dew Point 15 °F
Humidity 90%
Rainfall 0.00 in
Snow Depth Not available.
7:18 AM 6:05 PM
Waxing Crescent, 12% visible
METAR KFLG 111257Z AUTO 00000KT 10SM CLR M08/M10 A3039 RMK AO2 SLP279 T10781100 TSNO
Pressure 30.36 in
Visibility 10.0 miles
Clouds Clear
Windchill 18 °F
Dew Point 15 °F
Humidity 90%
Rainfall 0.00 in
Snow Depth Not available.
7:18 AM 6:05 PM
Waxing Crescent, 12% visible
METAR KFLG 111257Z AUTO 00000KT 10SM CLR M08/M10 A3039 RMK AO2 SLP279 T10781100 TSNO

10-Day Weather Forecast

Almanac

Astronomy

Feb. 11, 2016 Rise Set
Actual Time
Civil Twilight
Nautical Twilight
Astronomical Twilight
Moon
Length of Visible Light
Length of Day
Tomorrow will be .
, % of the Moon is Illuminated

Today's Extremes

State Highs State Lows

Community

WunderPhotos

Upload Photos

1,892,046 photos uploaded!

WunderBlog® & News

Nearby

Air Quality

  Air Quality AQ Index Pollutant
Not available.

Snow Depth

Station Depth Elevation

Earthquake Activity

City Distance Mag. Time & Date
Minimum magnitude displayed is 2.5.

Coastal Water Temperatures

Place Temperature

Stations

Nearby Weather Stations

Station Location Temp. Windchill Dew Point Humidity Wind Precip. Elev Updated Type
                   

Watches & Warnings

There are currently no watches in effect.